Chicago, Illinois
Traffic Map
Current Weather Conditions
Chicago, Illinois
Broken Clouds
Broken Clouds
76°
Feels Like: 76°
Wind Chill: 76° Ceiling: 15000
Heat Index: 76° Visibility: 10mi
Dew Point: 68° Wind: 13mph
Humidity: 76% Direction: 230° (SW)
Pressure: 29.81in Gusts: 21mph
Raw Report DataKMDW 211253Z 23011G18KT 10SM FEW020 BKN150 BKN200 BKN250 24/20 A2981 RMK AO2 SLP080 T02440200
Traffic Incident Summary
Active as of:
Severity:
Category:
InformationThere was an issue retrieving the traffic information for this location. Please try a different location or try again shortly.
Advertisements